sensor_id;sensor_type;location;lat;lon;timestamp;temperature;humidity
68139;DHT22;54940;50.842;4.410;2023-04-21T00:00:19;8.50;99.90
68139;DHT22;54940;50.842;4.410;2023-04-21T00:02:45;8.50;99.90
68139;DHT22;54940;50.842;4.410;2023-04-21T00:05:10;8.50;99.90
68139;DHT22;54940;50.842;4.410;2023-04-21T00:07:39;8.40;99.90
68139;DHT22;54940;50.842;4.410;2023-04-21T00:10:10;8.40;99.90
68139;DHT22;54940;50.842;4.410;2023-04-21T00:12:37;8.50;99.90
68139;DHT22;54940;50.842;4.410;2023-04-21T00:15:03;8.50;99.90
68139;DHT22;54940;50.842;4.410;2023-04-21T00:17:29;8.50;99.90
68139;DHT22;54940;50.842;4.410;2023-04-21T00:19:55;8.50;99.90
68139;DHT22;54940;50.842;4.410;2023-04-21T00:22:21;8.50;99.90
68139;DHT22;54940;50.842;4.410;2023-04-21T00:24:46;8.50;99.90
68139;DHT22;54940;50.842;4.410;2023-04-21T00:27:14;8.60;99.90
68139;DHT22;54940;50.842;4.410;2023-04-21T00:29:41;8.50;99.90
68139;DHT22;54940;50.842;4.410;2023-04-21T00:32:07;8.50;99.90
68139;DHT22;54940;50.842;4.410;2023-04-21T00:34:34;8.40;99.90
68139;DHT22;54940;50.842;4.410;2023-04-21T00:37:00;8.40;99.90
68139;DHT22;54940;50.842;4.410;2023-04-21T00:39:27;8.40;99.90
68139;DHT22;54940;50.842;4.410;2023-04-21T00:41:52;8.50;99.90
68139;DHT22;54940;50.842;4.410;2023-04-21T00:44:18;8.50;99.90
68139;DHT22;54940;50.842;4.410;2023-04-21T00:46:45;8.40;99.90
68139;DHT22;54940;50.842;4.410;2023-04-21T00:49:13;8.40;99.90
68139;DHT22;54940;50.842;4.410;2023-04-21T00:51:39;8.50;99.90
68139;DHT22;54940;50.842;4.410;2023-04-21T00:54:06;8.50;99.90
68139;DHT22;54940;50.842;4.410;2023-04-21T00:56:34;8.50;99.90
68139;DHT22;54940;50.842;4.410;2023-04-21T00:59:00;8.50;99.90
68139;DHT22;54940;50.842;4.410;2023-04-21T01:01:28;8.50;99.90
68139;DHT22;54940;50.842;4.410;2023-04-21T01:03:57;8.50;99.90
68139;DHT22;54940;50.842;4.410;2023-04-21T01:06:23;8.40;99.90
68139;DHT22;54940;50.842;4.410;2023-04-21T01:08:51;8.40;99.90
68139;DHT22;54940;50.842;4.410;2023-04-21T01:11:17;8.40;99.90
68139;DHT22;54940;50.842;4.410;2023-04-21T01:13:43;8.40;99.90
68139;DHT22;54940;50.842;4.410;2023-04-21T01:16:15;8.40;99.90
68139;DHT22;54940;50.842;4.410;2023-04-21T01:18:41;8.40;99.90
68139;DHT22;54940;50.842;4.410;2023-04-21T01:21:06;8.40;99.90
68139;DHT22;54940;50.842;4.410;2023-04-21T01:23:32;8.40;99.90
68139;DHT22;54940;50.842;4.410;2023-04-21T01:25:58;8.40;99.90
68139;DHT22;54940;50.842;4.410;2023-04-21T01:28:25;8.50;99.90
68139;DHT22;54940;50.842;4.410;2023-04-21T01:30:51;8.40;99.90
68139;DHT22;54940;50.842;4.410;2023-04-21T01:33:18;8.40;99.90
68139;DHT22;54940;50.842;4.410;2023-04-21T01:35:44;8.40;99.90
68139;DHT22;54940;50.842;4.410;2023-04-21T01:38:10;8.40;99.90
68139;DHT22;54940;50.842;4.410;2023-04-21T01:40:37;8.50;99.90
68139;DHT22;54940;50.842;4.410;2023-04-21T01:43:02;8.50;99.90
68139;DHT22;54940;50.842;4.410;2023-04-21T01:45:30;8.50;99.90
68139;DHT22;54940;50.842;4.410;2023-04-21T01:47:55;8.50;99.90
68139;DHT22;54940;50.842;4.410;2023-04-21T01:50:21;8.60;99.90
68139;DHT22;54940;50.842;4.410;2023-04-21T01:52:47;8.60;99.90
68139;DHT22;54940;50.842;4.410;2023-04-21T01:55:12;8.60;99.90
68139;DHT22;54940;50.842;4.410;2023-04-21T01:57:39;8.60;99.90
68139;DHT22;54940;50.842;4.410;2023-04-21T02:00:05;8.50;99.90
68139;DHT22;54940;50.842;4.410;2023-04-21T02:02:32;8.40;99.90
68139;DHT22;54940;50.842;4.410;2023-04-21T02:04:57;8.40;99.90
68139;DHT22;54940;50.842;4.410;2023-04-21T02:07:23;8.40;99.90
68139;DHT22;54940;50.842;4.410;2023-04-21T02:09:53;8.30;99.90
68139;DHT22;54940;50.842;4.410;2023-04-21T02:12:19;8.30;99.90
68139;DHT22;54940;50.842;4.410;2023-04-21T02:14:45;8.20;99.90
68139;DHT22;54940;50.842;4.410;2023-04-21T02:17:12;8.30;99.90
68139;DHT22;54940;50.842;4.410;2023-04-21T02:19:39;8.30;99.90
68139;DHT22;54940;50.842;4.410;2023-04-21T02:22:05;8.30;99.90
68139;DHT22;54940;50.842;4.410;2023-04-21T02:24:33;8.30;99.90
68139;DHT22;54940;50.842;4.410;2023-04-21T02:26:58;8.30;99.90
68139;DHT22;54940;50.842;4.410;2023-04-21T02:29:24;8.40;99.90
68139;DHT22;54940;50.842;4.410;2023-04-21T02:31:52;8.40;99.90
68139;DHT22;54940;50.842;4.410;2023-04-21T02:34:18;8.40;99.90
68139;DHT22;54940;50.842;4.410;2023-04-21T02:36:45;8.40;99.90
68139;DHT22;54940;50.842;4.410;2023-04-21T02:39:10;8.50;99.90
68139;DHT22;54940;50.842;4.410;2023-04-21T02:41:36;8.40;99.90
68139;DHT22;54940;50.842;4.410;2023-04-21T02:44:02;8.40;99.90
68139;DHT22;54940;50.842;4.410;2023-04-21T02:46:27;8.40;99.90
68139;DHT22;54940;50.842;4.410;2023-04-21T02:48:53;8.40;99.90
68139;DHT22;54940;50.842;4.410;2023-04-21T02:51:18;8.40;99.90
68139;DHT22;54940;50.842;4.410;2023-04-21T02:53:44;8.30;99.90
68139;DHT22;54940;50.842;4.410;2023-04-21T02:56:10;8.30;99.90
68139;DHT22;54940;50.842;4.410;2023-04-21T02:58:36;8.30;99.90
68139;DHT22;54940;50.842;4.410;2023-04-21T03:01:03;8.40;99.90
68139;DHT22;54940;50.842;4.410;2023-04-21T03:03:29;8.40;99.90
68139;DHT22;54940;50.842;4.410;2023-04-21T03:06:00;8.40;99.90
68139;DHT22;54940;50.842;4.410;2023-04-21T03:08:26;8.40;99.90
68139;DHT22;54940;50.842;4.410;2023-04-21T03:10:52;8.40;99.90
68139;DHT22;54940;50.842;4.410;2023-04-21T03:13:17;8.40;99.90
68139;DHT22;54940;50.842;4.410;2023-04-21T03:15:43;8.40;99.90
68139;DHT22;54940;50.842;4.410;2023-04-21T03:18:09;8.40;99.90
68139;DHT22;54940;50.842;4.410;2023-04-21T03:20:35;8.50;99.90
68139;DHT22;54940;50.842;4.410;2023-04-21T03:23:01;8.50;99.90
68139;DHT22;54940;50.842;4.410;2023-04-21T03:25:27;8.60;99.90
68139;DHT22;54940;50.842;4.410;2023-04-21T03:27:53;8.50;99.90
68139;DHT22;54940;50.842;4.410;2023-04-21T03:30:19;8.60;99.90
68139;DHT22;54940;50.842;4.410;2023-04-21T03:32:45;8.60;99.90
68139;DHT22;54940;50.842;4.410;2023-04-21T03:35:10;8.60;99.90
68139;DHT22;54940;50.842;4.410;2023-04-21T03:37:36;8.60;99.90
68139;DHT22;54940;50.842;4.410;2023-04-21T03:40:03;8.60;99.90
68139;DHT22;54940;50.842;4.410;2023-04-21T03:42:31;8.60;99.90
68139;DHT22;54940;50.842;4.410;2023-04-21T03:45:04;8.50;99.90
68139;DHT22;54940;50.842;4.410;2023-04-21T03:47:30;8.50;99.90
68139;DHT22;54940;50.842;4.410;2023-04-21T03:49:58;8.50;99.90
68139;DHT22;54940;50.842;4.410;2023-04-21T03:52:24;8.50;99.90
68139;DHT22;54940;50.842;4.410;2023-04-21T03:54:50;8.60;99.90
68139;DHT22;54940;50.842;4.410;2023-04-21T03:57:15;8.60;99.90
68139;DHT22;54940;50.842;4.410;2023-04-21T03:59:41;8.60;99.90
68139;DHT22;54940;50.842;4.410;2023-04-21T04:02:07;8.50;99.90
68139;DHT22;54940;50.842;4.410;2023-04-21T04:04:33;8.40;99.90
68139;DHT22;54940;50.842;4.410;2023-04-21T04:06:59;8.50;99.90
68139;DHT22;54940;50.842;4.410;2023-04-21T04:09:25;8.60;99.90
68139;DHT22;54940;50.842;4.410;2023-04-21T04:11:50;8.50;99.90
68139;DHT22;54940;50.842;4.410;2023-04-21T04:14:16;8.50;99.90
68139;DHT22;54940;50.842;4.410;2023-04-21T04:16:44;8.50;99.90
68139;DHT22;54940;50.842;4.410;2023-04-21T04:19:10;8.60;99.90
68139;DHT22;54940;50.842;4.410;2023-04-21T04:21:36;8.50;99.90
68139;DHT22;54940;50.842;4.410;2023-04-21T04:24:02;8.50;99.90
68139;DHT22;54940;50.842;4.410;2023-04-21T04:26:32;8.50;99.90
68139;DHT22;54940;50.842;4.410;2023-04-21T04:29:02;8.50;99.90
68139;DHT22;54940;50.842;4.410;2023-04-21T04:31:30;8.50;99.90
68139;DHT22;54940;50.842;4.410;2023-04-21T04:33:57;8.60;99.90
68139;DHT22;54940;50.842;4.410;2023-04-21T04:36:23;8.60;99.90
68139;DHT22;54940;50.842;4.410;2023-04-21T04:38:49;8.60;99.90
68139;DHT22;54940;50.842;4.410;2023-04-21T04:41:15;8.60;99.90
68139;DHT22;54940;50.842;4.410;2023-04-21T04:43:41;8.50;99.90
68139;DHT22;54940;50.842;4.410;2023-04-21T04:46:07;8.50;99.90
68139;DHT22;54940;50.842;4.410;2023-04-21T04:48:37;8.50;99.90
68139;DHT22;54940;50.842;4.410;2023-04-21T04:51:03;8.50;99.90
68139;DHT22;54940;50.842;4.410;2023-04-21T04:53:29;8.50;99.90
68139;DHT22;54940;50.842;4.410;2023-04-21T04:55:54;8.50;99.90
68139;DHT22;54940;50.842;4.410;2023-04-21T04:58:23;8.40;99.90
68139;DHT22;54940;50.842;4.410;2023-04-21T05:00:49;8.30;99.90
68139;DHT22;54940;50.842;4.410;2023-04-21T05:03:15;8.20;99.90
68139;DHT22;54940;50.842;4.410;2023-04-21T05:05:40;8.10;99.90
68139;DHT22;54940;50.842;4.410;2023-04-21T05:08:06;8.10;99.90
68139;DHT22;54940;50.842;4.410;2023-04-21T05:10:32;8.20;99.90
68139;DHT22;54940;50.842;4.410;2023-04-21T05:13:00;8.20;99.90
68139;DHT22;54940;50.842;4.410;2023-04-21T05:15:25;8.20;99.90
68139;DHT22;54940;50.842;4.410;2023-04-21T05:17:51;8.20;99.90
68139;DHT22;54940;50.842;4.410;2023-04-21T05:20:16;8.10;99.90
68139;DHT22;54940;50.842;4.410;2023-04-21T05:22:42;8.30;99.90
68139;DHT22;54940;50.842;4.410;2023-04-21T05:25:10;8.50;99.90
68139;DHT22;54940;50.842;4.410;2023-04-21T05:27:44;9.10;99.90
68139;DHT22;54940;50.842;4.410;2023-04-21T05:30:10;9.50;99.90
68139;DHT22;54940;50.842;4.410;2023-04-21T05:32:36;10.00;99.90
68139;DHT22;54940;50.842;4.410;2023-04-21T05:35:02;10.20;99.90
68139;DHT22;54940;50.842;4.410;2023-04-21T05:37:30;10.30;99.90
68139;DHT22;54940;50.842;4.410;2023-04-21T05:39:56;10.70;99.90
68139;DHT22;54940;50.842;4.410;2023-04-21T05:42:21;10.90;99.90
68139;DHT22;54940;50.842;4.410;2023-04-21T05:44:47;11.10;99.90
68139;DHT22;54940;50.842;4.410;2023-04-21T05:47:15;11.40;99.90
68139;DHT22;54940;50.842;4.410;2023-04-21T05:49:43;11.30;99.90
68139;DHT22;54940;50.842;4.410;2023-04-21T05:52:15;11.10;99.90
68139;DHT22;54940;50.842;4.410;2023-04-21T05:54:41;11.00;99.90
68139;DHT22;54940;50.842;4.410;2023-04-21T05:57:07;10.70;99.90
68139;DHT22;54940;50.842;4.410;2023-04-21T05:59:33;10.50;99.90
68139;DHT22;54940;50.842;4.410;2023-04-21T06:01:58;10.70;99.90
68139;DHT22;54940;50.842;4.410;2023-04-21T06:04:24;10.80;99.90
68139;DHT22;54940;50.842;4.410;2023-04-21T06:06:52;11.10;99.90
68139;DHT22;54940;50.842;4.410;2023-04-21T06:09:17;11.10;99.90
68139;DHT22;54940;50.842;4.410;2023-04-21T06:11:43;11.40;99.90
68139;DHT22;54940;50.842;4.410;2023-04-21T06:14:08;11.70;99.90
68139;DHT22;54940;50.842;4.410;2023-04-21T06:16:34;11.60;99.90
68139;DHT22;54940;50.842;4.410;2023-04-21T06:19:00;11.70;99.90
68139;DHT22;54940;50.842;4.410;2023-04-21T06:21:28;12.00;99.90
68139;DHT22;54940;50.842;4.410;2023-04-21T06:23:57;12.00;99.90
68139;DHT22;54940;50.842;4.410;2023-04-21T06:26:22;11.90;99.90
68139;DHT22;54940;50.842;4.410;2023-04-21T06:28:50;12.00;99.90
68139;DHT22;54940;50.842;4.410;2023-04-21T06:31:16;12.40;99.90
68139;DHT22;54940;50.842;4.410;2023-04-21T06:33:43;12.70;99.90
68139;DHT22;54940;50.842;4.410;2023-04-21T06:36:09;12.70;99.90
68139;DHT22;54940;50.842;4.410;2023-04-21T06:38:34;12.40;99.90
68139;DHT22;54940;50.842;4.410;2023-04-21T06:41:00;12.50;99.90
68139;DHT22;54940;50.842;4.410;2023-04-21T06:43:27;13.00;99.90
68139;DHT22;54940;50.842;4.410;2023-04-21T06:45:52;13.00;99.90
68139;DHT22;54940;50.842;4.410;2023-04-21T06:48:18;13.40;99.90
68139;DHT22;54940;50.842;4.410;2023-04-21T06:50:43;13.50;99.90
68139;DHT22;54940;50.842;4.410;2023-04-21T06:53:12;14.00;99.90
68139;DHT22;54940;50.842;4.410;2023-04-21T06:55:38;14.40;99.90
68139;DHT22;54940;50.842;4.410;2023-04-21T06:58:04;14.80;99.90
68139;DHT22;54940;50.842;4.410;2023-04-21T07:00:29;15.10;99.90
68139;DHT22;54940;50.842;4.410;2023-04-21T07:02:55;14.80;99.90
68139;DHT22;54940;50.842;4.410;2023-04-21T07:05:21;14.10;99.90
68139;DHT22;54940;50.842;4.410;2023-04-21T07:07:46;13.50;99.90
68139;DHT22;54940;50.842;4.410;2023-04-21T07:10:14;13.20;99.90
68139;DHT22;54940;50.842;4.410;2023-04-21T07:12:44;13.10;99.90
68139;DHT22;54940;50.842;4.410;2023-04-21T07:15:13;13.30;99.90
68139;DHT22;54940;50.842;4.410;2023-04-21T07:17:38;13.60;99.90
68139;DHT22;54940;50.842;4.410;2023-04-21T07:20:04;13.70;99.90
68139;DHT22;54940;50.842;4.410;2023-04-21T07:22:30;13.70;99.90
68139;DHT22;54940;50.842;4.410;2023-04-21T07:24:56;13.40;99.90
68139;DHT22;54940;50.842;4.410;2023-04-21T07:27:23;12.90;99.90
68139;DHT22;54940;50.842;4.410;2023-04-21T07:29:49;12.60;99.90
68139;DHT22;54940;50.842;4.410;2023-04-21T07:32:15;13.00;99.90
68139;DHT22;54940;50.842;4.410;2023-04-21T07:34:40;13.10;99.90
68139;DHT22;54940;50.842;4.410;2023-04-21T07:37:11;13.40;99.90
68139;DHT22;54940;50.842;4.410;2023-04-21T07:39:36;13.60;99.90
68139;DHT22;54940;50.842;4.410;2023-04-21T07:42:02;13.90;99.90
68139;DHT22;54940;50.842;4.410;2023-04-21T07:44:28;13.50;99.90
68139;DHT22;54940;50.842;4.410;2023-04-21T07:46:53;13.70;99.90
68139;DHT22;54940;50.842;4.410;2023-04-21T07:49:19;14.00;99.90
68139;DHT22;54940;50.842;4.410;2023-04-21T07:51:45;14.20;99.90
68139;DHT22;54940;50.842;4.410;2023-04-21T07:54:11;14.30;99.90
68139;DHT22;54940;50.842;4.410;2023-04-21T07:56:36;14.40;99.90
68139;DHT22;54940;50.842;4.410;2023-04-21T07:59:04;14.50;99.90
68139;DHT22;54940;50.842;4.410;2023-04-21T08:01:30;14.40;99.90
68139;DHT22;54940;50.842;4.410;2023-04-21T08:03:55;14.50;99.90
68139;DHT22;54940;50.842;4.410;2023-04-21T08:06:21;15.00;99.90
68139;DHT22;54940;50.842;4.410;2023-04-21T08:08:47;15.10;99.90
68139;DHT22;54940;50.842;4.410;2023-04-21T08:11:12;15.50;99.90
68139;DHT22;54940;50.842;4.410;2023-04-21T08:13:38;16.00;99.90
68139;DHT22;54940;50.842;4.410;2023-04-21T08:16:06;16.50;99.90
68139;DHT22;54940;50.842;4.410;2023-04-21T08:18:32;17.00;99.90
68139;DHT22;54940;50.842;4.410;2023-04-21T08:21:00;17.00;99.90
68139;DHT22;54940;50.842;4.410;2023-04-21T08:23:28;17.00;99.90
68139;DHT22;54940;50.842;4.410;2023-04-21T08:25:57;17.20;99.90
68139;DHT22;54940;50.842;4.410;2023-04-21T08:28:22;17.40;99.90
68139;DHT22;54940;50.842;4.410;2023-04-21T08:30:50;17.10;99.90
68139;DHT22;54940;50.842;4.410;2023-04-21T08:33:16;17.30;99.90
68139;DHT22;54940;50.842;4.410;2023-04-21T08:35:42;17.50;99.90
68139;DHT22;54940;50.842;4.410;2023-04-21T08:38:08;17.90;99.90
68139;DHT22;54940;50.842;4.410;2023-04-21T08:40:35;17.90;99.90
68139;DHT22;54940;50.842;4.410;2023-04-21T08:43:04;17.70;99.90
68139;DHT22;54940;50.842;4.410;2023-04-21T08:45:33;17.80;99.90
68139;DHT22;54940;50.842;4.410;2023-04-21T08:48:01;17.50;99.90
68139;DHT22;54940;50.842;4.410;2023-04-21T08:50:29;17.10;99.90
68139;DHT22;54940;50.842;4.410;2023-04-21T08:52:56;17.10;99.90
68139;DHT22;54940;50.842;4.410;2023-04-21T08:55:30;17.00;99.90
68139;DHT22;54940;50.842;4.410;2023-04-21T08:58:03;17.20;99.90
68139;DHT22;54940;50.842;4.410;2023-04-21T09:00:28;16.90;99.90
68139;DHT22;54940;50.842;4.410;2023-04-21T09:02:56;16.70;99.90
68139;DHT22;54940;50.842;4.410;2023-04-21T09:05:26;16.70;99.90
68139;DHT22;54940;50.842;4.410;2023-04-21T09:08:14;16.20;99.90
68139;DHT22;54940;50.842;4.410;2023-04-21T09:10:44;15.70;99.90
68139;DHT22;54940;50.842;4.410;2023-04-21T09:13:12;16.10;99.90
68139;DHT22;54940;50.842;4.410;2023-04-21T09:15:39;16.10;99.90
68139;DHT22;54940;50.842;4.410;2023-04-21T09:18:11;16.00;99.90
68139;DHT22;54940;50.842;4.410;2023-04-21T09:20:40;16.10;99.90
68139;DHT22;54940;50.842;4.410;2023-04-21T09:23:11;16.30;99.90
68139;DHT22;54940;50.842;4.410;2023-04-21T09:25:39;16.20;99.90
68139;DHT22;54940;50.842;4.410;2023-04-21T09:28:09;15.60;99.90
68139;DHT22;54940;50.842;4.410;2023-04-21T09:30:36;15.60;99.90
68139;DHT22;54940;50.842;4.410;2023-04-21T09:33:04;15.80;99.90
68139;DHT22;54940;50.842;4.410;2023-04-21T09:35:37;16.10;99.90
68139;DHT22;54940;50.842;4.410;2023-04-21T09:38:09;16.60;99.90
68139;DHT22;54940;50.842;4.410;2023-04-21T09:40:35;16.60;99.90
68139;DHT22;54940;50.842;4.410;2023-04-21T09:43:01;17.10;99.90
68139;DHT22;54940;50.842;4.410;2023-04-21T09:45:29;17.30;99.90
68139;DHT22;54940;50.842;4.410;2023-04-21T09:47:57;17.10;99.90
68139;DHT22;54940;50.842;4.410;2023-04-21T09:50:25;17.00;99.90
68139;DHT22;54940;50.842;4.410;2023-04-21T09:52:52;17.00;99.90
68139;DHT22;54940;50.842;4.410;2023-04-21T09:55:24;16.40;99.90
68139;DHT22;54940;50.842;4.410;2023-04-21T09:58:00;16.30;99.90
68139;DHT22;54940;50.842;4.410;2023-04-21T10:00:27;16.10;99.90
68139;DHT22;54940;50.842;4.410;2023-04-21T10:02:57;16.10;99.90
68139;DHT22;54940;50.842;4.410;2023-04-21T10:05:23;16.30;99.90
68139;DHT22;54940;50.842;4.410;2023-04-21T10:07:53;16.60;99.90
68139;DHT22;54940;50.842;4.410;2023-04-21T10:10:27;16.80;99.90
68139;DHT22;54940;50.842;4.410;2023-04-21T10:12:54;17.30;99.90
68139;DHT22;54940;50.842;4.410;2023-04-21T10:15:40;17.70;99.90
68139;DHT22;54940;50.842;4.410;2023-04-21T10:18:12;17.40;99.90
68139;DHT22;54940;50.842;4.410;2023-04-21T10:21:07;17.50;99.90
68139;DHT22;54940;50.842;4.410;2023-04-21T10:23:37;18.10;99.90
68139;DHT22;54940;50.842;4.410;2023-04-21T10:34:14;18.20;99.90
68139;DHT22;54940;50.842;4.410;2023-04-21T10:39:25;19.10;99.90
68139;DHT22;54940;50.842;4.410;2023-04-21T10:41:55;19.30;99.90
68139;DHT22;54940;50.842;4.410;2023-04-21T10:44:23;19.40;99.90
68139;DHT22;54940;50.842;4.410;2023-04-21T10:46:51;19.60;99.90
68139;DHT22;54940;50.842;4.410;2023-04-21T10:49:24;19.60;99.90
68139;DHT22;54940;50.842;4.410;2023-04-21T10:57:19;19.20;99.90
68139;DHT22;54940;50.842;4.410;2023-04-21T10:59:48;19.60;99.90
68139;DHT22;54940;50.842;4.410;2023-04-21T11:02:15;20.20;99.90
68139;DHT22;54940;50.842;4.410;2023-04-21T11:04:42;20.10;98.60
68139;DHT22;54940;50.842;4.410;2023-04-21T11:09:55;20.10;99.90
68139;DHT22;54940;50.842;4.410;2023-04-21T11:12:21;19.60;96.60
68139;DHT22;54940;50.842;4.410;2023-04-21T11:17:22;19.70;99.90
68139;DHT22;54940;50.842;4.410;2023-04-21T11:19:55;20.90;99.90
68139;DHT22;54940;50.842;4.410;2023-04-21T11:22:29;21.20;96.50
68139;DHT22;54940;50.842;4.410;2023-04-21T11:24:57;21.30;94.20
68139;DHT22;54940;50.842;4.410;2023-04-21T11:27:26;20.90;93.50
68139;DHT22;54940;50.842;4.410;2023-04-21T11:32:27;20.50;94.10
68139;DHT22;54940;50.842;4.410;2023-04-21T11:35:04;20.40;96.30
68139;DHT22;54940;50.842;4.410;2023-04-21T11:37:31;20.30;98.80
68139;DHT22;54940;50.842;4.410;2023-04-21T11:39:58;20.80;94.40
68139;DHT22;54940;50.842;4.410;2023-04-21T11:42:24;21.00;93.90
68139;DHT22;54940;50.842;4.410;2023-04-21T11:44:53;21.60;95.60
68139;DHT22;54940;50.842;4.410;2023-04-21T11:47:24;21.90;91.00
68139;DHT22;54940;50.842;4.410;2023-04-21T11:49:55;21.70;95.00
68139;DHT22;54940;50.842;4.410;2023-04-21T11:52:29;22.20;92.00
68139;DHT22;54940;50.842;4.410;2023-04-21T11:55:20;21.60;89.00
68139;DHT22;54940;50.842;4.410;2023-04-21T11:57:47;21.60;84.90
68139;DHT22;54940;50.842;4.410;2023-04-21T12:00:14;20.90;85.20
68139;DHT22;54940;50.842;4.410;2023-04-21T12:02:41;20.50;91.20
68139;DHT22;54940;50.842;4.410;2023-04-21T12:05:08;20.60;91.80
68139;DHT22;54940;50.842;4.410;2023-04-21T12:07:39;20.50;91.90
68139;DHT22;54940;50.842;4.410;2023-04-21T12:10:15;20.60;91.60
68139;DHT22;54940;50.842;4.410;2023-04-21T12:12:42;21.20;92.00
68139;DHT22;54940;50.842;4.410;2023-04-21T12:15:11;21.90;90.80
68139;DHT22;54940;50.842;4.410;2023-04-21T12:20:10;22.70;82.80
68139;DHT22;54940;50.842;4.410;2023-04-21T12:22:36;21.80;86.90
68139;DHT22;54940;50.842;4.410;2023-04-21T12:25:04;21.20;85.60
68139;DHT22;54940;50.842;4.410;2023-04-21T12:27:30;21.60;86.10
68139;DHT22;54940;50.842;4.410;2023-04-21T12:29:56;22.30;90.20
68139;DHT22;54940;50.842;4.410;2023-04-21T12:32:23;22.80;83.00
68139;DHT22;54940;50.842;4.410;2023-04-21T12:34:49;22.40;81.70
68139;DHT22;54940;50.842;4.410;2023-04-21T12:37:15;22.30;82.10
68139;DHT22;54940;50.842;4.410;2023-04-21T12:39:41;22.30;80.10
68139;DHT22;54940;50.842;4.410;2023-04-21T12:42:06;22.70;82.00
68139;DHT22;54940;50.842;4.410;2023-04-21T12:44:32;23.00;87.90
68139;DHT22;54940;50.842;4.410;2023-04-21T12:47:00;23.00;76.70
68139;DHT22;54940;50.842;4.410;2023-04-21T13:12:12;24.80;71.50
68139;DHT22;54940;50.842;4.410;2023-04-21T13:14:38;24.70;74.60
68139;DHT22;54940;50.842;4.410;2023-04-21T13:17:04;24.60;72.40
68139;DHT22;54940;50.842;4.410;2023-04-21T13:19:30;24.80;74.10
68139;DHT22;54940;50.842;4.410;2023-04-21T13:21:55;25.00;67.30
68139;DHT22;54940;50.842;4.410;2023-04-21T13:24:21;24.80;69.10
68139;DHT22;54940;50.842;4.410;2023-04-21T13:26:47;24.50;70.50
68139;DHT22;54940;50.842;4.410;2023-04-21T13:29:13;24.20;71.30
68139;DHT22;54940;50.842;4.410;2023-04-21T13:31:39;24.10;69.20
68139;DHT22;54940;50.842;4.410;2023-04-21T13:34:05;23.90;71.20
68139;DHT22;54940;50.842;4.410;2023-04-21T13:36:30;24.00;70.30
68139;DHT22;54940;50.842;4.410;2023-04-21T13:38:58;24.10;71.70
68139;DHT22;54940;50.842;4.410;2023-04-21T13:41:25;24.40;73.20
68139;DHT22;54940;50.842;4.410;2023-04-21T13:43:50;24.20;75.00
68139;DHT22;54940;50.842;4.410;2023-04-21T13:46:16;24.20;73.80
68139;DHT22;54940;50.842;4.410;2023-04-21T13:48:43;24.10;70.90
68139;DHT22;54940;50.842;4.410;2023-04-21T13:51:09;23.70;68.10
68139;DHT22;54940;50.842;4.410;2023-04-21T13:53:35;23.60;70.10
68139;DHT22;54940;50.842;4.410;2023-04-21T13:56:01;23.10;67.50
68139;DHT22;54940;50.842;4.410;2023-04-21T13:58:27;22.50;72.40
68139;DHT22;54940;50.842;4.410;2023-04-21T14:00:55;22.20;67.00
68139;DHT22;54940;50.842;4.410;2023-04-21T14:03:23;21.60;72.00
68139;DHT22;54940;50.842;4.410;2023-04-21T14:05:49;21.90;68.30
68139;DHT22;54940;50.842;4.410;2023-04-21T14:08:15;21.90;70.10
68139;DHT22;54940;50.842;4.410;2023-04-21T14:10:40;22.50;75.90
68139;DHT22;54940;50.842;4.410;2023-04-21T14:13:06;23.20;72.70
68139;DHT22;54940;50.842;4.410;2023-04-21T14:15:32;23.70;67.20
68139;DHT22;54940;50.842;4.410;2023-04-21T14:17:57;23.90;66.00
68139;DHT22;54940;50.842;4.410;2023-04-21T14:20:26;24.10;69.70
68139;DHT22;54940;50.842;4.410;2023-04-21T14:22:51;24.50;62.70
68139;DHT22;54940;50.842;4.410;2023-04-21T14:25:19;23.30;66.90
68139;DHT22;54940;50.842;4.410;2023-04-21T14:27:45;22.60;69.10
68139;DHT22;54940;50.842;4.410;2023-04-21T14:30:12;22.30;72.50
68139;DHT22;54940;50.842;4.410;2023-04-21T14:32:38;22.90;69.90
68139;DHT22;54940;50.842;4.410;2023-04-21T14:35:10;22.70;67.10
68139;DHT22;54940;50.842;4.410;2023-04-21T14:37:36;22.40;67.10
68139;DHT22;54940;50.842;4.410;2023-04-21T14:40:02;22.30;71.10
68139;DHT22;54940;50.842;4.410;2023-04-21T14:42:31;22.80;73.70
68139;DHT22;54940;50.842;4.410;2023-04-21T14:44:57;23.00;66.10
68139;DHT22;54940;50.842;4.410;2023-04-21T14:47:23;22.80;68.20
68139;DHT22;54940;50.842;4.410;2023-04-21T14:49:48;22.90;70.60
68139;DHT22;54940;50.842;4.410;2023-04-21T14:52:19;23.40;65.20
68139;DHT22;54940;50.842;4.410;2023-04-21T14:59:54;23.70;71.00
68139;DHT22;54940;50.842;4.410;2023-04-21T15:02:20;23.70;66.70
68139;DHT22;54940;50.842;4.410;2023-04-21T15:04:48;23.70;67.70
68139;DHT22;54940;50.842;4.410;2023-04-21T15:07:14;23.30;68.00
68139;DHT22;54940;50.842;4.410;2023-04-21T15:09:40;22.80;67.50
68139;DHT22;54940;50.842;4.410;2023-04-21T15:12:10;22.80;66.80
68139;DHT22;54940;50.842;4.410;2023-04-21T15:14:42;23.20;69.30
68139;DHT22;54940;50.842;4.410;2023-04-21T15:17:08;23.30;69.40
68139;DHT22;54940;50.842;4.410;2023-04-21T15:19:34;23.70;67.30
68139;DHT22;54940;50.842;4.410;2023-04-21T15:21:59;23.50;65.20
68139;DHT22;54940;50.842;4.410;2023-04-21T15:24:25;22.90;66.30
68139;DHT22;54940;50.842;4.410;2023-04-21T15:26:51;23.10;67.90
68139;DHT22;54940;50.842;4.410;2023-04-21T15:29:16;22.60;67.40
68139;DHT22;54940;50.842;4.410;2023-04-21T15:31:45;22.00;71.30
68139;DHT22;54940;50.842;4.410;2023-04-21T15:34:10;21.90;70.40
68139;DHT22;54940;50.842;4.410;2023-04-21T15:36:36;21.80;72.00
68139;DHT22;54940;50.842;4.410;2023-04-21T15:39:02;21.80;70.20
68139;DHT22;54940;50.842;4.410;2023-04-21T15:41:28;21.80;71.60
68139;DHT22;54940;50.842;4.410;2023-04-21T15:43:57;22.30;75.10
68139;DHT22;54940;50.842;4.410;2023-04-21T15:46:27;21.80;70.20
68139;DHT22;54940;50.842;4.410;2023-04-21T15:48:52;21.70;74.80
68139;DHT22;54940;50.842;4.410;2023-04-21T15:51:18;22.20;74.10
68139;DHT22;54940;50.842;4.410;2023-04-21T15:53:44;23.00;71.40
68139;DHT22;54940;50.842;4.410;2023-04-21T15:56:16;22.30;69.30
68139;DHT22;54940;50.842;4.410;2023-04-21T15:58:42;21.60;73.80
68139;DHT22;54940;50.842;4.410;2023-04-21T16:01:07;21.80;70.90
68139;DHT22;54940;50.842;4.410;2023-04-21T16:03:33;21.50;78.40
68139;DHT22;54940;50.842;4.410;2023-04-21T16:05:59;21.20;78.70
68139;DHT22;54940;50.842;4.410;2023-04-21T16:11:00;21.00;78.70
68139;DHT22;54940;50.842;4.410;2023-04-21T16:13:26;20.80;84.40
68139;DHT22;54940;50.842;4.410;2023-04-21T16:15:54;20.70;84.90
68139;DHT22;54940;50.842;4.410;2023-04-21T16:18:33;20.90;81.70
68139;DHT22;54940;50.842;4.410;2023-04-21T16:21:08;20.90;79.70
68139;DHT22;54940;50.842;4.410;2023-04-21T16:23:38;20.80;82.10
68139;DHT22;54940;50.842;4.410;2023-04-21T16:26:04;20.70;80.60
68139;DHT22;54940;50.842;4.410;2023-04-21T16:28:33;20.60;79.60
68139;DHT22;54940;50.842;4.410;2023-04-21T16:30:59;20.20;81.00
68139;DHT22;54940;50.842;4.410;2023-04-21T16:33:25;20.00;79.30